sensor_id;sensor_type;location;lat;lon;timestamp;P1;durP1;ratioP1;P2;durP2;ratioP2
30605;SDS011;17371;51.328;3.860;2023-05-15T00:01:17;5.70;;;3.88;;
30605;SDS011;17371;51.328;3.860;2023-05-15T00:03:43;6.45;;;4.07;;
30605;SDS011;17371;51.328;3.860;2023-05-15T00:06:08;7.27;;;3.70;;
30605;SDS011;17371;51.328;3.860;2023-05-15T00:08:34;6.20;;;4.00;;
30605;SDS011;17371;51.328;3.860;2023-05-15T00:10:59;6.67;;;3.90;;
30605;SDS011;17371;51.328;3.860;2023-05-15T00:13:25;8.43;;;4.57;;
30605;SDS011;17371;51.328;3.860;2023-05-15T00:15:50;7.60;;;4.25;;
30605;SDS011;17371;51.328;3.860;2023-05-15T00:18:17;7.00;;;4.03;;
30605;SDS011;17371;51.328;3.860;2023-05-15T00:20:42;8.57;;;4.73;;
30605;SDS011;17371;51.328;3.860;2023-05-15T00:23:08;8.55;;;4.40;;
30605;SDS011;17371;51.328;3.860;2023-05-15T00:25:33;8.60;;;4.63;;
30605;SDS011;17371;51.328;3.860;2023-05-15T00:27:58;7.27;;;3.90;;
30605;SDS011;17371;51.328;3.860;2023-05-15T00:30:24;7.63;;;3.93;;
30605;SDS011;17371;51.328;3.860;2023-05-15T00:32:49;8.13;;;4.37;;
30605;SDS011;17371;51.328;3.860;2023-05-15T00:35:16;8.35;;;4.63;;
30605;SDS011;17371;51.328;3.860;2023-05-15T00:37:41;7.28;;;4.05;;
30605;SDS011;17371;51.328;3.860;2023-05-15T00:40:08;10.90;;;4.77;;
30605;SDS011;17371;51.328;3.860;2023-05-15T00:42:34;9.05;;;4.38;;
30605;SDS011;17371;51.328;3.860;2023-05-15T00:44:59;11.25;;;4.60;;
30605;SDS011;17371;51.328;3.860;2023-05-15T00:47:25;8.33;;;4.20;;
30605;SDS011;17371;51.328;3.860;2023-05-15T00:49:50;10.47;;;5.40;;
30605;SDS011;17371;51.328;3.860;2023-05-15T00:52:18;8.65;;;4.50;;
30605;SDS011;17371;51.328;3.860;2023-05-15T00:54:44;7.18;;;4.28;;
30605;SDS011;17371;51.328;3.860;2023-05-15T00:57:09;9.87;;;4.53;;
30605;SDS011;17371;51.328;3.860;2023-05-15T00:59:35;8.40;;;4.38;;
30605;SDS011;17371;51.328;3.860;2023-05-15T01:02:03;8.77;;;4.63;;
30605;SDS011;17371;51.328;3.860;2023-05-15T01:04:28;8.05;;;4.43;;
30605;SDS011;17371;51.328;3.860;2023-05-15T01:06:54;7.63;;;3.60;;
30605;SDS011;17371;51.328;3.860;2023-05-15T01:09:20;6.93;;;3.90;;
30605;SDS011;17371;51.328;3.860;2023-05-15T01:11:48;7.53;;;4.00;;
30605;SDS011;17371;51.328;3.860;2023-05-15T01:14:15;7.28;;;3.78;;
30605;SDS011;17371;51.328;3.860;2023-05-15T01:16:40;8.70;;;4.20;;
30605;SDS011;17371;51.328;3.860;2023-05-15T01:19:05;8.80;;;4.20;;
30605;SDS011;17371;51.328;3.860;2023-05-15T01:21:36;8.30;;;4.80;;
30605;SDS011;17371;51.328;3.860;2023-05-15T01:24:13;8.60;;;4.32;;
30605;SDS011;17371;51.328;3.860;2023-05-15T01:29:48;9.13;;;4.33;;
30605;SDS011;17371;51.328;3.860;2023-05-15T01:32:19;9.45;;;4.40;;
30605;SDS011;17371;51.328;3.860;2023-05-15T01:34:51;10.68;;;5.03;;
30605;SDS011;17371;51.328;3.860;2023-05-15T01:37:18;12.65;;;4.85;;
30605;SDS011;17371;51.328;3.860;2023-05-15T01:39:46;8.25;;;4.30;;
30605;SDS011;17371;51.328;3.860;2023-05-15T01:42:14;10.07;;;3.93;;
30605;SDS011;17371;51.328;3.860;2023-05-15T01:44:43;8.70;;;4.22;;
30605;SDS011;17371;51.328;3.860;2023-05-15T01:47:11;8.52;;;4.60;;
30605;SDS011;17371;51.328;3.860;2023-05-15T01:49:38;9.15;;;5.07;;
30605;SDS011;17371;51.328;3.860;2023-05-15T01:52:04;9.30;;;5.07;;
30605;SDS011;17371;51.328;3.860;2023-05-15T01:54:31;10.80;;;5.07;;
30605;SDS011;17371;51.328;3.860;2023-05-15T01:56:57;9.45;;;4.80;;
30605;SDS011;17371;51.328;3.860;2023-05-15T01:59:23;8.60;;;4.80;;
30605;SDS011;17371;51.328;3.860;2023-05-15T02:01:50;12.23;;;5.35;;
30605;SDS011;17371;51.328;3.860;2023-05-15T02:04:16;11.95;;;5.18;;
30605;SDS011;17371;51.328;3.860;2023-05-15T02:06:43;9.10;;;4.53;;
30605;SDS011;17371;51.328;3.860;2023-05-15T02:09:08;10.68;;;4.90;;
30605;SDS011;17371;51.328;3.860;2023-05-15T02:11:34;9.63;;;4.43;;
30605;SDS011;17371;51.328;3.860;2023-05-15T02:14:00;12.82;;;5.55;;
30605;SDS011;17371;51.328;3.860;2023-05-15T02:16:26;9.93;;;4.70;;
30605;SDS011;17371;51.328;3.860;2023-05-15T02:18:52;10.68;;;5.53;;
30605;SDS011;17371;51.328;3.860;2023-05-15T02:21:18;10.57;;;4.80;;
30605;SDS011;17371;51.328;3.860;2023-05-15T02:23:43;9.10;;;4.57;;
30605;SDS011;17371;51.328;3.860;2023-05-15T02:26:11;10.63;;;5.38;;
30605;SDS011;17371;51.328;3.860;2023-05-15T02:28:43;9.97;;;4.67;;
30605;SDS011;17371;51.328;3.860;2023-05-15T02:31:13;10.43;;;4.97;;
30605;SDS011;17371;51.328;3.860;2023-05-15T02:33:44;11.52;;;5.70;;
30605;SDS011;17371;51.328;3.860;2023-05-15T02:36:15;10.05;;;5.03;;
30605;SDS011;17371;51.328;3.860;2023-05-15T02:38:46;9.05;;;4.20;;
30605;SDS011;17371;51.328;3.860;2023-05-15T02:41:12;12.53;;;5.67;;
30605;SDS011;17371;51.328;3.860;2023-05-15T02:43:39;9.90;;;4.50;;
30605;SDS011;17371;51.328;3.860;2023-05-15T02:46:05;9.57;;;4.85;;
30605;SDS011;17371;51.328;3.860;2023-05-15T02:48:31;9.23;;;4.63;;
30605;SDS011;17371;51.328;3.860;2023-05-15T02:50:58;9.97;;;5.20;;
30605;SDS011;17371;51.328;3.860;2023-05-15T02:53:24;9.75;;;5.07;;
30605;SDS011;17371;51.328;3.860;2023-05-15T02:55:50;10.03;;;4.73;;
30605;SDS011;17371;51.328;3.860;2023-05-15T02:58:15;7.07;;;3.92;;
30605;SDS011;17371;51.328;3.860;2023-05-15T03:00:41;9.25;;;4.18;;
30605;SDS011;17371;51.328;3.860;2023-05-15T03:03:06;9.37;;;4.57;;
30605;SDS011;17371;51.328;3.860;2023-05-15T03:05:31;8.73;;;4.73;;
30605;SDS011;17371;51.328;3.860;2023-05-15T03:07:57;9.40;;;4.73;;
30605;SDS011;17371;51.328;3.860;2023-05-15T03:10:23;7.80;;;4.23;;
30605;SDS011;17371;51.328;3.860;2023-05-15T03:12:49;11.35;;;4.50;;
30605;SDS011;17371;51.328;3.860;2023-05-15T03:15:14;10.80;;;4.87;;
30605;SDS011;17371;51.328;3.860;2023-05-15T03:17:40;9.70;;;5.13;;
30605;SDS011;17371;51.328;3.860;2023-05-15T03:20:06;8.97;;;5.00;;
30605;SDS011;17371;51.328;3.860;2023-05-15T03:22:32;11.47;;;4.87;;
30605;SDS011;17371;51.328;3.860;2023-05-15T03:24:57;10.25;;;5.10;;
30605;SDS011;17371;51.328;3.860;2023-05-15T03:27:24;9.00;;;3.90;;
30605;SDS011;17371;51.328;3.860;2023-05-15T03:29:49;11.93;;;4.78;;
30605;SDS011;17371;51.328;3.860;2023-05-15T03:32:15;10.00;;;4.50;;
30605;SDS011;17371;51.328;3.860;2023-05-15T03:34:40;8.53;;;4.30;;
30605;SDS011;17371;51.328;3.860;2023-05-15T03:37:05;8.37;;;4.13;;
30605;SDS011;17371;51.328;3.860;2023-05-15T03:39:31;8.20;;;4.77;;
30605;SDS011;17371;51.328;3.860;2023-05-15T03:41:56;7.95;;;3.75;;
30605;SDS011;17371;51.328;3.860;2023-05-15T03:44:23;8.32;;;3.88;;
30605;SDS011;17371;51.328;3.860;2023-05-15T03:46:48;8.13;;;4.00;;
30605;SDS011;17371;51.328;3.860;2023-05-15T03:49:14;7.63;;;3.85;;
30605;SDS011;17371;51.328;3.860;2023-05-15T03:51:39;8.27;;;4.85;;
30605;SDS011;17371;51.328;3.860;2023-05-15T03:54:04;9.67;;;4.43;;
30605;SDS011;17371;51.328;3.860;2023-05-15T03:56:30;6.77;;;3.70;;
30605;SDS011;17371;51.328;3.860;2023-05-15T03:58:55;9.10;;;3.60;;
30605;SDS011;17371;51.328;3.860;2023-05-15T04:01:22;7.40;;;3.60;;
30605;SDS011;17371;51.328;3.860;2023-05-15T04:03:47;8.13;;;3.33;;
30605;SDS011;17371;51.328;3.860;2023-05-15T04:06:13;8.02;;;3.63;;
30605;SDS011;17371;51.328;3.860;2023-05-15T04:08:38;8.37;;;3.50;;
30605;SDS011;17371;51.328;3.860;2023-05-15T04:11:04;7.00;;;3.80;;
30605;SDS011;17371;51.328;3.860;2023-05-15T04:13:29;8.20;;;4.13;;
30605;SDS011;17371;51.328;3.860;2023-05-15T04:15:54;10.13;;;3.87;;
30605;SDS011;17371;51.328;3.860;2023-05-15T04:18:21;10.70;;;4.60;;
30605;SDS011;17371;51.328;3.860;2023-05-15T04:20:46;11.32;;;5.50;;
30605;SDS011;17371;51.328;3.860;2023-05-15T04:23:12;9.10;;;3.50;;
30605;SDS011;17371;51.328;3.860;2023-05-15T04:25:37;9.68;;;4.07;;
30605;SDS011;17371;51.328;3.860;2023-05-15T04:28:03;7.82;;;3.78;;
30605;SDS011;17371;51.328;3.860;2023-05-15T04:30:28;7.73;;;3.37;;
30605;SDS011;17371;51.328;3.860;2023-05-15T04:32:54;11.57;;;4.63;;
30605;SDS011;17371;51.328;3.860;2023-05-15T04:35:21;9.07;;;4.37;;
30605;SDS011;17371;51.328;3.860;2023-05-15T04:37:46;9.73;;;4.47;;
30605;SDS011;17371;51.328;3.860;2023-05-15T04:40:11;10.67;;;4.40;;
30605;SDS011;17371;51.328;3.860;2023-05-15T04:42:37;8.82;;;4.10;;
30605;SDS011;17371;51.328;3.860;2023-05-15T04:45:02;11.07;;;4.60;;
30605;SDS011;17371;51.328;3.860;2023-05-15T04:47:28;11.00;;;4.35;;
30605;SDS011;17371;51.328;3.860;2023-05-15T04:49:54;14.02;;;4.95;;
30605;SDS011;17371;51.328;3.860;2023-05-15T04:52:20;11.50;;;4.40;;
30605;SDS011;17371;51.328;3.860;2023-05-15T04:54:46;8.73;;;3.53;;
30605;SDS011;17371;51.328;3.860;2023-05-15T04:57:11;13.05;;;4.32;;
30605;SDS011;17371;51.328;3.860;2023-05-15T04:59:36;14.30;;;5.20;;
30605;SDS011;17371;51.328;3.860;2023-05-15T05:02:02;9.73;;;4.33;;
30605;SDS011;17371;51.328;3.860;2023-05-15T05:04:27;9.77;;;4.38;;
30605;SDS011;17371;51.328;3.860;2023-05-15T05:06:53;9.50;;;4.28;;
30605;SDS011;17371;51.328;3.860;2023-05-15T05:09:20;10.43;;;5.13;;
30605;SDS011;17371;51.328;3.860;2023-05-15T05:11:45;11.38;;;4.53;;
30605;SDS011;17371;51.328;3.860;2023-05-15T05:14:11;13.80;;;4.87;;
30605;SDS011;17371;51.328;3.860;2023-05-15T05:16:36;11.52;;;4.88;;
30605;SDS011;17371;51.328;3.860;2023-05-15T05:19:02;14.00;;;5.13;;
30605;SDS011;17371;51.328;3.860;2023-05-15T05:21:27;12.97;;;5.10;;
30605;SDS011;17371;51.328;3.860;2023-05-15T05:23:53;14.87;;;5.40;;
30605;SDS011;17371;51.328;3.860;2023-05-15T05:26:20;12.88;;;5.03;;
30605;SDS011;17371;51.328;3.860;2023-05-15T05:28:45;14.70;;;5.30;;
30605;SDS011;17371;51.328;3.860;2023-05-15T05:31:10;14.13;;;5.75;;
30605;SDS011;17371;51.328;3.860;2023-05-15T05:33:36;13.35;;;5.72;;
30605;SDS011;17371;51.328;3.860;2023-05-15T05:36:01;17.70;;;5.77;;
30605;SDS011;17371;51.328;3.860;2023-05-15T05:38:26;13.77;;;5.57;;
30605;SDS011;17371;51.328;3.860;2023-05-15T05:40:52;17.10;;;6.77;;
30605;SDS011;17371;51.328;3.860;2023-05-15T05:43:18;16.93;;;5.77;;
30605;SDS011;17371;51.328;3.860;2023-05-15T05:45:44;18.75;;;6.70;;
30605;SDS011;17371;51.328;3.860;2023-05-15T05:48:09;18.87;;;6.60;;
30605;SDS011;17371;51.328;3.860;2023-05-15T05:50:35;21.77;;;6.67;;
30605;SDS011;17371;51.328;3.860;2023-05-15T05:53:00;20.70;;;6.80;;
30605;SDS011;17371;51.328;3.860;2023-05-15T05:55:25;22.77;;;7.05;;
30605;SDS011;17371;51.328;3.860;2023-05-15T05:57:51;20.20;;;6.73;;
30605;SDS011;17371;51.328;3.860;2023-05-15T06:00:18;22.90;;;7.87;;
30605;SDS011;17371;51.328;3.860;2023-05-15T06:02:44;23.40;;;8.07;;
30605;SDS011;17371;51.328;3.860;2023-05-15T06:05:09;30.27;;;8.87;;
30605;SDS011;17371;51.328;3.860;2023-05-15T06:07:35;25.87;;;8.40;;
30605;SDS011;17371;51.328;3.860;2023-05-15T06:10:00;23.30;;;8.20;;
30605;SDS011;17371;51.328;3.860;2023-05-15T06:12:25;27.73;;;9.17;;
30605;SDS011;17371;51.328;3.860;2023-05-15T06:14:51;29.98;;;8.93;;
30605;SDS011;17371;51.328;3.860;2023-05-15T06:17:18;31.37;;;9.97;;
30605;SDS011;17371;51.328;3.860;2023-05-15T06:19:43;28.88;;;9.18;;
30605;SDS011;17371;51.328;3.860;2023-05-15T06:22:08;26.83;;;8.80;;
30605;SDS011;17371;51.328;3.860;2023-05-15T06:24:34;25.47;;;8.17;;
30605;SDS011;17371;51.328;3.860;2023-05-15T06:26:59;28.70;;;9.90;;
30605;SDS011;17371;51.328;3.860;2023-05-15T06:29:25;33.77;;;9.20;;
30605;SDS011;17371;51.328;3.860;2023-05-15T06:31:50;32.22;;;10.63;;
30605;SDS011;17371;51.328;3.860;2023-05-15T06:34:17;35.47;;;10.90;;
30605;SDS011;17371;51.328;3.860;2023-05-15T06:36:42;32.13;;;10.63;;
30605;SDS011;17371;51.328;3.860;2023-05-15T06:39:08;33.50;;;11.00;;
30605;SDS011;17371;51.328;3.860;2023-05-15T06:41:33;44.70;;;12.17;;
30605;SDS011;17371;51.328;3.860;2023-05-15T06:43:59;38.73;;;11.30;;
30605;SDS011;17371;51.328;3.860;2023-05-15T06:46:24;50.60;;;12.10;;
30605;SDS011;17371;51.328;3.860;2023-05-15T06:48:49;39.78;;;11.93;;
30605;SDS011;17371;51.328;3.860;2023-05-15T06:51:16;36.73;;;11.20;;
30605;SDS011;17371;51.328;3.860;2023-05-15T06:53:42;42.92;;;12.65;;
30605;SDS011;17371;51.328;3.860;2023-05-15T06:56:07;52.00;;;12.03;;
30605;SDS011;17371;51.328;3.860;2023-05-15T06:58:32;39.93;;;12.53;;
30605;SDS011;17371;51.328;3.860;2023-05-15T07:00:58;38.67;;;12.53;;
30605;SDS011;17371;51.328;3.860;2023-05-15T07:03:23;40.93;;;12.67;;
30605;SDS011;17371;51.328;3.860;2023-05-15T07:05:49;46.10;;;12.43;;
30605;SDS011;17371;51.328;3.860;2023-05-15T07:08:15;44.63;;;12.82;;
30605;SDS011;17371;51.328;3.860;2023-05-15T07:10:41;45.83;;;13.63;;
30605;SDS011;17371;51.328;3.860;2023-05-15T07:13:06;47.83;;;13.68;;
30605;SDS011;17371;51.328;3.860;2023-05-15T07:15:31;50.33;;;14.43;;
30605;SDS011;17371;51.328;3.860;2023-05-15T07:17:57;44.60;;;13.80;;
30605;SDS011;17371;51.328;3.860;2023-05-15T07:20:22;47.23;;;14.20;;
30605;SDS011;17371;51.328;3.860;2023-05-15T07:22:48;49.57;;;14.73;;
30605;SDS011;17371;51.328;3.860;2023-05-15T07:25:14;51.73;;;14.93;;
30605;SDS011;17371;51.328;3.860;2023-05-15T07:27:40;51.15;;;15.68;;
30605;SDS011;17371;51.328;3.860;2023-05-15T07:30:06;51.63;;;14.90;;
30605;SDS011;17371;51.328;3.860;2023-05-15T07:32:32;48.00;;;15.32;;
30605;SDS011;17371;51.328;3.860;2023-05-15T07:34:57;58.53;;;16.70;;
30605;SDS011;17371;51.328;3.860;2023-05-15T07:37:23;54.80;;;16.77;;
30605;SDS011;17371;51.328;3.860;2023-05-15T07:39:48;61.58;;;17.17;;
30605;SDS011;17371;51.328;3.860;2023-05-15T07:42:15;70.23;;;18.90;;
30605;SDS011;17371;51.328;3.860;2023-05-15T07:44:40;67.23;;;17.57;;
30605;SDS011;17371;51.328;3.860;2023-05-15T07:47:06;73.50;;;18.65;;
30605;SDS011;17371;51.328;3.860;2023-05-15T07:49:31;69.63;;;19.30;;
30605;SDS011;17371;51.328;3.860;2023-05-15T07:51:56;74.73;;;17.97;;
30605;SDS011;17371;51.328;3.860;2023-05-15T07:54:22;84.87;;;19.27;;
30605;SDS011;17371;51.328;3.860;2023-05-15T07:56:47;77.30;;;17.93;;
30605;SDS011;17371;51.328;3.860;2023-05-15T07:59:14;76.07;;;19.70;;
30605;SDS011;17371;51.328;3.860;2023-05-15T08:01:39;65.32;;;18.45;;
30605;SDS011;17371;51.328;3.860;2023-05-15T08:04:06;76.83;;;18.33;;
30605;SDS011;17371;51.328;3.860;2023-05-15T08:08:57;72.07;;;17.57;;
30605;SDS011;17371;51.328;3.860;2023-05-15T08:11:23;85.57;;;20.45;;
30605;SDS011;17371;51.328;3.860;2023-05-15T08:13:48;70.37;;;19.30;;
30605;SDS011;17371;51.328;3.860;2023-05-15T08:16:15;71.57;;;17.80;;
30605;SDS011;17371;51.328;3.860;2023-05-15T08:18:40;74.22;;;17.70;;
30605;SDS011;17371;51.328;3.860;2023-05-15T08:21:06;74.23;;;17.87;;
30605;SDS011;17371;51.328;3.860;2023-05-15T08:23:31;68.63;;;17.00;;
30605;SDS011;17371;51.328;3.860;2023-05-15T08:25:57;73.57;;;18.73;;
30605;SDS011;17371;51.328;3.860;2023-05-15T08:28:22;70.37;;;17.73;;
30605;SDS011;17371;51.328;3.860;2023-05-15T08:30:47;69.10;;;18.17;;
30605;SDS011;17371;51.328;3.860;2023-05-15T08:33:14;51.27;;;15.27;;
30605;SDS011;17371;51.328;3.860;2023-05-15T08:35:40;57.90;;;16.38;;
30605;SDS011;17371;51.328;3.860;2023-05-15T08:38:05;43.00;;;14.23;;
30605;SDS011;17371;51.328;3.860;2023-05-15T08:40:30;53.90;;;16.53;;
30605;SDS011;17371;51.328;3.860;2023-05-15T08:42:57;52.13;;;14.82;;
30605;SDS011;17371;51.328;3.860;2023-05-15T08:45:24;49.17;;;14.73;;
30605;SDS011;17371;51.328;3.860;2023-05-15T08:47:50;53.05;;;16.63;;
30605;SDS011;17371;51.328;3.860;2023-05-15T08:50:17;47.93;;;14.57;;
30605;SDS011;17371;51.328;3.860;2023-05-15T08:52:44;42.03;;;14.05;;
30605;SDS011;17371;51.328;3.860;2023-05-15T08:55:10;47.83;;;14.65;;
30605;SDS011;17371;51.328;3.860;2023-05-15T08:57:36;42.67;;;14.60;;
30605;SDS011;17371;51.328;3.860;2023-05-15T09:00:02;49.63;;;14.10;;
30605;SDS011;17371;51.328;3.860;2023-05-15T09:02:28;39.00;;;13.20;;
30605;SDS011;17371;51.328;3.860;2023-05-15T09:04:53;45.72;;;13.77;;
30605;SDS011;17371;51.328;3.860;2023-05-15T09:07:20;42.53;;;12.40;;
30605;SDS011;17371;51.328;3.860;2023-05-15T09:09:45;45.22;;;12.82;;
30605;SDS011;17371;51.328;3.860;2023-05-15T09:12:13;41.33;;;13.90;;
30605;SDS011;17371;51.328;3.860;2023-05-15T09:14:39;41.58;;;14.23;;
30605;SDS011;17371;51.328;3.860;2023-05-15T09:17:04;46.93;;;13.40;;
30605;SDS011;17371;51.328;3.860;2023-05-15T09:19:29;52.07;;;14.73;;
30605;SDS011;17371;51.328;3.860;2023-05-15T09:21:56;53.22;;;15.57;;
30605;SDS011;17371;51.328;3.860;2023-05-15T09:24:39;41.53;;;12.03;;
30605;SDS011;17371;51.328;3.860;2023-05-15T09:27:05;46.55;;;13.52;;
30605;SDS011;17371;51.328;3.860;2023-05-15T09:29:31;40.63;;;14.05;;
30605;SDS011;17371;51.328;3.860;2023-05-15T09:32:00;45.28;;;14.65;;
30605;SDS011;17371;51.328;3.860;2023-05-15T09:34:30;37.65;;;12.60;;
30605;SDS011;17371;51.328;3.860;2023-05-15T09:36:56;40.53;;;13.60;;
30605;SDS011;17371;51.328;3.860;2023-05-15T09:39:21;42.42;;;11.75;;
30605;SDS011;17371;51.328;3.860;2023-05-15T09:41:48;38.17;;;11.77;;
30605;SDS011;17371;51.328;3.860;2023-05-15T09:44:17;34.50;;;10.45;;
30605;SDS011;17371;51.328;3.860;2023-05-15T09:46:42;42.65;;;12.25;;
30605;SDS011;17371;51.328;3.860;2023-05-15T09:49:08;40.03;;;11.07;;
30605;SDS011;17371;51.328;3.860;2023-05-15T09:51:33;28.33;;;10.07;;
30605;SDS011;17371;51.328;3.860;2023-05-15T09:53:58;31.03;;;11.30;;
30605;SDS011;17371;51.328;3.860;2023-05-15T09:56:24;24.73;;;9.03;;
30605;SDS011;17371;51.328;3.860;2023-05-15T09:58:54;26.00;;;9.10;;
30605;SDS011;17371;51.328;3.860;2023-05-15T10:01:20;28.63;;;9.60;;
30605;SDS011;17371;51.328;3.860;2023-05-15T10:03:55;30.23;;;10.13;;
30605;SDS011;17371;51.328;3.860;2023-05-15T10:06:21;31.08;;;9.55;;
30605;SDS011;17371;51.328;3.860;2023-05-15T10:08:49;26.90;;;9.17;;
30605;SDS011;17371;51.328;3.860;2023-05-15T10:11:15;30.95;;;10.45;;
30605;SDS011;17371;51.328;3.860;2023-05-15T10:13:41;33.80;;;10.23;;
30605;SDS011;17371;51.328;3.860;2023-05-15T10:16:08;34.67;;;10.23;;
30605;SDS011;17371;51.328;3.860;2023-05-15T10:18:33;29.52;;;10.48;;
30605;SDS011;17371;51.328;3.860;2023-05-15T10:21:00;28.40;;;8.97;;
30605;SDS011;17371;51.328;3.860;2023-05-15T10:23:26;29.58;;;10.40;;
30605;SDS011;17371;51.328;3.860;2023-05-15T10:25:53;36.63;;;11.55;;
30605;SDS011;17371;51.328;3.860;2023-05-15T10:28:20;34.85;;;10.57;;
30605;SDS011;17371;51.328;3.860;2023-05-15T10:30:46;29.17;;;10.07;;
30605;SDS011;17371;51.328;3.860;2023-05-15T10:33:13;23.67;;;8.57;;
30605;SDS011;17371;51.328;3.860;2023-05-15T10:35:39;29.33;;;9.73;;
30605;SDS011;17371;51.328;3.860;2023-05-15T10:38:05;25.63;;;10.10;;
30605;SDS011;17371;51.328;3.860;2023-05-15T10:40:31;28.67;;;9.30;;
30605;SDS011;17371;51.328;3.860;2023-05-15T10:42:56;30.03;;;8.80;;
30605;SDS011;17371;51.328;3.860;2023-05-15T10:45:23;22.23;;;7.85;;
30605;SDS011;17371;51.328;3.860;2023-05-15T10:47:49;10.32;;;4.95;;
30605;SDS011;17371;51.328;3.860;2023-05-15T10:50:16;4.43;;;3.00;;
30605;SDS011;17371;51.328;3.860;2023-05-15T10:52:42;3.03;;;1.90;;
30605;SDS011;17371;51.328;3.860;2023-05-15T10:55:07;3.53;;;2.53;;
30605;SDS011;17371;51.328;3.860;2023-05-15T10:57:37;2.88;;;2.10;;
30605;SDS011;17371;51.328;3.860;2023-05-15T11:00:03;3.47;;;2.50;;
30605;SDS011;17371;51.328;3.860;2023-05-15T11:02:49;5.55;;;2.72;;
30605;SDS011;17371;51.328;3.860;2023-05-15T11:05:14;4.35;;;2.42;;
30605;SDS011;17371;51.328;3.860;2023-05-15T11:07:41;2.87;;;2.07;;
30605;SDS011;17371;51.328;3.860;2023-05-15T11:10:34;3.35;;;2.33;;
30605;SDS011;17371;51.328;3.860;2023-05-15T11:13:00;4.53;;;2.77;;
30605;SDS011;17371;51.328;3.860;2023-05-15T11:15:26;4.63;;;1.70;;
30605;SDS011;17371;51.328;3.860;2023-05-15T11:18:05;2.08;;;1.30;;
30605;SDS011;17371;51.328;3.860;2023-05-15T11:20:33;4.18;;;1.65;;
30605;SDS011;17371;51.328;3.860;2023-05-15T11:23:03;5.13;;;1.88;;
30605;SDS011;17371;51.328;3.860;2023-05-15T11:25:28;3.57;;;1.50;;
30605;SDS011;17371;51.328;3.860;2023-05-15T11:27:54;1.75;;;1.63;;
30605;SDS011;17371;51.328;3.860;2023-05-15T11:30:20;2.77;;;1.57;;
30605;SDS011;17371;51.328;3.860;2023-05-15T11:32:50;3.28;;;1.58;;
30605;SDS011;17371;51.328;3.860;2023-05-15T11:35:20;2.67;;;1.58;;
30605;SDS011;17371;51.328;3.860;2023-05-15T11:37:48;1.90;;;1.25;;
30605;SDS011;17371;51.328;3.860;2023-05-15T11:40:18;2.75;;;1.50;;
30605;SDS011;17371;51.328;3.860;2023-05-15T11:42:57;1.57;;;1.17;;
30605;SDS011;17371;51.328;3.860;2023-05-15T11:45:30;1.60;;;1.20;;
30605;SDS011;17371;51.328;3.860;2023-05-15T11:47:56;2.38;;;1.48;;
30605;SDS011;17371;51.328;3.860;2023-05-15T11:50:23;3.97;;;1.58;;
30605;SDS011;17371;51.328;3.860;2023-05-15T11:52:49;4.47;;;1.90;;
30605;SDS011;17371;51.328;3.860;2023-05-15T11:55:14;2.67;;;1.23;;
30605;SDS011;17371;51.328;3.860;2023-05-15T11:57:41;3.78;;;1.80;;
30605;SDS011;17371;51.328;3.860;2023-05-15T12:00:07;2.57;;;1.83;;
30605;SDS011;17371;51.328;3.860;2023-05-15T12:02:33;3.60;;;1.80;;
30605;SDS011;17371;51.328;3.860;2023-05-15T12:04:59;2.20;;;1.67;;
30605;SDS011;17371;51.328;3.860;2023-05-15T12:07:24;2.40;;;1.77;;
30605;SDS011;17371;51.328;3.860;2023-05-15T12:09:49;2.63;;;1.42;;
30605;SDS011;17371;51.328;3.860;2023-05-15T12:12:15;3.35;;;2.00;;
30605;SDS011;17371;51.328;3.860;2023-05-15T12:14:42;5.40;;;1.90;;
30605;SDS011;17371;51.328;3.860;2023-05-15T12:17:07;2.83;;;1.80;;
30605;SDS011;17371;51.328;3.860;2023-05-15T12:19:33;2.33;;;1.50;;
30605;SDS011;17371;51.328;3.860;2023-05-15T12:21:58;2.30;;;1.48;;
30605;SDS011;17371;51.328;3.860;2023-05-15T12:24:24;3.80;;;2.00;;
30605;SDS011;17371;51.328;3.860;2023-05-15T12:26:50;1.20;;;1.02;;
30605;SDS011;17371;51.328;3.860;2023-05-15T12:29:15;1.60;;;1.27;;
30605;SDS011;17371;51.328;3.860;2023-05-15T12:31:42;9.57;;;2.40;;
30605;SDS011;17371;51.328;3.860;2023-05-15T12:34:07;2.58;;;1.80;;
30605;SDS011;17371;51.328;3.860;2023-05-15T12:36:33;2.07;;;1.60;;
30605;SDS011;17371;51.328;3.860;2023-05-15T12:39:02;7.77;;;2.07;;
30605;SDS011;17371;51.328;3.860;2023-05-15T12:41:29;2.85;;;1.52;;
30605;SDS011;17371;51.328;3.860;2023-05-15T12:43:55;3.53;;;1.55;;
30605;SDS011;17371;51.328;3.860;2023-05-15T12:46:21;1.73;;;1.20;;
30605;SDS011;17371;51.328;3.860;2023-05-15T12:48:48;3.65;;;1.95;;
30605;SDS011;17371;51.328;3.860;2023-05-15T12:51:14;5.53;;;1.40;;
30605;SDS011;17371;51.328;3.860;2023-05-15T12:53:40;3.78;;;1.70;;
30605;SDS011;17371;51.328;3.860;2023-05-15T12:56:06;2.77;;;2.00;;
30605;SDS011;17371;51.328;3.860;2023-05-15T12:58:31;2.40;;;1.47;;
30605;SDS011;17371;51.328;3.860;2023-05-15T13:00:57;3.05;;;1.73;;
30605;SDS011;17371;51.328;3.860;2023-05-15T13:03:23;1.93;;;1.43;;
30605;SDS011;17371;51.328;3.860;2023-05-15T13:05:49;2.70;;;1.57;;
30605;SDS011;17371;51.328;3.860;2023-05-15T13:08:16;11.07;;;2.40;;
30605;SDS011;17371;51.328;3.860;2023-05-15T13:10:42;2.75;;;1.50;;
30605;SDS011;17371;51.328;3.860;2023-05-15T13:13:08;4.45;;;1.63;;
30605;SDS011;17371;51.328;3.860;2023-05-15T13:15:34;8.03;;;1.73;;
30605;SDS011;17371;51.328;3.860;2023-05-15T13:18:01;2.13;;;1.30;;
30605;SDS011;17371;51.328;3.860;2023-05-15T13:20:27;3.38;;;1.80;;
30605;SDS011;17371;51.328;3.860;2023-05-15T13:22:55;2.70;;;1.95;;
30605;SDS011;17371;51.328;3.860;2023-05-15T13:25:21;2.33;;;1.70;;
30605;SDS011;17371;51.328;3.860;2023-05-15T13:27:46;2.57;;;1.50;;
30605;SDS011;17371;51.328;3.860;2023-05-15T13:30:12;3.50;;;1.50;;
30605;SDS011;17371;51.328;3.860;2023-05-15T13:32:38;2.72;;;1.70;;
30605;SDS011;17371;51.328;3.860;2023-05-15T13:35:04;2.43;;;1.20;;
30605;SDS011;17371;51.328;3.860;2023-05-15T13:37:30;2.43;;;1.70;;
30605;SDS011;17371;51.328;3.860;2023-05-15T13:39:56;2.28;;;1.70;;
30605;SDS011;17371;51.328;3.860;2023-05-15T13:42:22;4.47;;;1.87;;
30605;SDS011;17371;51.328;3.860;2023-05-15T13:44:47;3.80;;;1.92;;
30605;SDS011;17371;51.328;3.860;2023-05-15T13:47:13;2.60;;;1.67;;
30605;SDS011;17371;51.328;3.860;2023-05-15T13:49:38;1.67;;;1.40;;
30605;SDS011;17371;51.328;3.860;2023-05-15T13:52:03;2.83;;;1.83;;
30605;SDS011;17371;51.328;3.860;2023-05-15T13:54:30;3.75;;;2.03;;
30605;SDS011;17371;51.328;3.860;2023-05-15T13:56:56;9.87;;;2.20;;
30605;SDS011;17371;51.328;3.860;2023-05-15T13:59:22;4.15;;;1.80;;
30605;SDS011;17371;51.328;3.860;2023-05-15T14:01:47;1.70;;;1.45;;
30605;SDS011;17371;51.328;3.860;2023-05-15T14:04:13;7.38;;;1.90;;
30605;SDS011;17371;51.328;3.860;2023-05-15T14:06:38;1.80;;;1.37;;
30605;SDS011;17371;51.328;3.860;2023-05-15T14:09:03;5.30;;;2.60;;
30605;SDS011;17371;51.328;3.860;2023-05-15T14:11:29;6.07;;;1.80;;
30605;SDS011;17371;51.328;3.860;2023-05-15T14:13:56;3.35;;;2.13;;
30605;SDS011;17371;51.328;3.860;2023-05-15T14:16:21;3.97;;;1.97;;
30605;SDS011;17371;51.328;3.860;2023-05-15T14:18:46;2.42;;;1.88;;
30605;SDS011;17371;51.328;3.860;2023-05-15T14:21:12;3.20;;;2.05;;
30605;SDS011;17371;51.328;3.860;2023-05-15T14:23:37;3.43;;;1.80;;
30605;SDS011;17371;51.328;3.860;2023-05-15T14:26:03;3.80;;;2.43;;
30605;SDS011;17371;51.328;3.860;2023-05-15T14:28:28;2.50;;;1.90;;
30605;SDS011;17371;51.328;3.860;2023-05-15T14:30:55;3.95;;;2.20;;
30605;SDS011;17371;51.328;3.860;2023-05-15T14:33:20;2.47;;;1.52;;
30605;SDS011;17371;51.328;3.860;2023-05-15T14:35:45;3.13;;;1.50;;
30605;SDS011;17371;51.328;3.860;2023-05-15T14:38:11;2.38;;;1.58;;